Accueil
METAR-TAF:

METAR-TAF

Aéroports :

Alpnach, Suisse

latitude: 46-56-19N, longitude: 8-17-03E, altitude: 440 m

Observation

Le bulletin a été fait il y a 31 minutes, à 10:50 UTC
Vent 1 kt de sud/sud-ouest
Température 7°C
Humidité 93%
Pression 1014 hPa
Visibilité: 3300 m
Quelques nuages à une hauteur de 800 ft
Nuages fragmentés à une hauteur de 3100 ft
Ciel couvert à une hauteur de 3500 ft
pluie

METAR: LSMA 251050Z AUTO 20001KT 3300NDV RA FEW008 BKN031 OVC035 07/06 Q1014 RMK

Heure: 12:21 (11:21 UTC)


TAF: absent

Observations et prévisions météorologiques de plus de 4000 aéroports (messages METAR et TAF).

Les stations disponibles sont représentées par des disques jaunes et rouges sur la carte.

Passer la souris dessus pour voir le nom de la station.

Cliquer dessus pour voir les observations et prévisions météorologiques.

Pour changer de carte: cliquez sur les boutons verts avec une croix noire pour zoomer, sur le bouton vert avec un tiret pour effectuer un zoom arrière, ou sur les flèches vertes pour les cartes adjacentes.


METAR-TAF: